createdAt,value
2023-05-11T00:01:47.076Z,92
2023-05-11T00:05:12.203Z,92
2023-05-11T00:08:37.355Z,92
2023-05-11T00:12:02.532Z,92
2023-05-11T00:15:27.681Z,91
2023-05-11T00:18:52.877Z,92
2023-05-11T00:22:17.970Z,92
2023-05-11T00:25:43.118Z,92
2023-05-11T00:29:08.256Z,92
2023-05-11T00:32:33.490Z,92
2023-05-11T00:35:58.614Z,92
2023-05-11T00:39:23.707Z,92
2023-05-11T00:42:48.863Z,92
2023-05-11T00:46:13.996Z,92
2023-05-11T00:49:39.080Z,92
2023-05-11T00:53:04.223Z,91
2023-05-11T00:56:29.375Z,91
2023-05-11T00:59:54.541Z,92
2023-05-11T01:03:19.790Z,91
2023-05-11T01:06:44.859Z,91
2023-05-11T01:10:10.078Z,92
2023-05-11T01:18:12.039Z,92
2023-05-11T01:21:37.186Z,92
2023-05-11T01:25:02.374Z,92
2023-05-11T01:28:27.584Z,92
2023-05-11T01:31:52.769Z,92
2023-05-11T01:35:17.926Z,92
2023-05-11T01:38:43.113Z,92
2023-05-11T01:42:08.314Z,91
2023-05-11T01:45:33.542Z,91
2023-05-11T01:48:58.704Z,92
2023-05-11T01:52:23.943Z,92
2023-05-11T01:55:49.105Z,92
2023-05-11T01:59:14.285Z,92
2023-05-11T02:02:39.550Z,93
2023-05-11T02:06:04.632Z,93
2023-05-11T02:09:29.841Z,92
2023-05-11T02:12:55.006Z,92
2023-05-11T02:16:20.273Z,92
2023-05-11T02:19:45.405Z,92
2023-05-11T02:23:10.555Z,92
2023-05-11T02:26:35.815Z,92
2023-05-11T02:30:01.003Z,92
2023-05-11T02:33:26.215Z,92
2023-05-11T02:36:51.425Z,92
2023-05-11T02:40:16.945Z,92
2023-05-11T02:43:41.763Z,92
2023-05-11T02:47:06.935Z,92
2023-05-11T02:50:32.105Z,92
2023-05-11T02:53:57.365Z,92
2023-05-11T02:57:22.493Z,92
2023-05-11T03:00:47.721Z,92
2023-05-11T03:04:12.846Z,92
2023-05-11T03:07:38.030Z,92
2023-05-11T03:11:03.222Z,92
2023-05-11T03:14:28.369Z,93
2023-05-11T03:17:53.583Z,93
2023-05-11T03:21:18.733Z,92
2023-05-11T03:24:43.960Z,92
2023-05-11T03:28:09.117Z,93
2023-05-11T03:31:34.294Z,93
2023-05-11T03:34:59.454Z,93
2023-05-11T03:38:24.626Z,93
2023-05-11T03:41:49.812Z,93
2023-05-11T03:45:15.003Z,93
2023-05-11T03:48:40.197Z,93
2023-05-11T03:52:05.357Z,93
2023-05-11T03:55:30.548Z,93
2023-05-11T03:58:55.752Z,93
2023-05-11T04:02:20.970Z,93
2023-05-11T04:05:46.097Z,93
2023-05-11T04:09:11.277Z,93
2023-05-11T04:12:36.445Z,93
2023-05-11T04:16:01.651Z,93
2023-05-11T04:19:26.857Z,93
2023-05-11T04:22:52.042Z,93
2023-05-11T04:26:17.242Z,92
2023-05-11T04:29:42.433Z,92
2023-05-11T04:33:07.739Z,92
2023-05-11T04:36:32.835Z,92
2023-05-11T04:39:58.001Z,92
2023-05-11T04:43:23.195Z,92
2023-05-11T04:46:48.383Z,93
2023-05-11T04:50:13.559Z,93
2023-05-11T04:53:38.721Z,93
2023-05-11T04:57:03.901Z,93
2023-05-11T05:00:29.087Z,93
2023-05-11T05:03:54.292Z,93
2023-05-11T05:07:19.484Z,94
2023-05-11T05:10:44.706Z,94
2023-05-11T05:14:09.897Z,94
2023-05-11T05:17:35.118Z,94
2023-05-11T05:21:00.279Z,94
2023-05-11T05:24:25.457Z,94
2023-05-11T05:27:50.660Z,94
2023-05-11T05:31:15.829Z,94
2023-05-11T05:34:40.994Z,94
2023-05-11T05:38:06.205Z,94
2023-05-11T05:41:31.378Z,94
2023-05-11T05:44:56.583Z,94
2023-05-11T05:48:21.760Z,94
2023-05-11T05:51:46.980Z,94
2023-05-11T05:55:12.188Z,94
2023-05-11T05:58:37.364Z,94
2023-05-11T06:02:02.642Z,94
2023-05-11T06:05:27.901Z,94
2023-05-11T06:08:53.072Z,94
2023-05-11T06:12:18.310Z,94
2023-05-11T06:15:43.923Z,94
2023-05-11T06:19:08.930Z,94
2023-05-11T06:22:33.947Z,94
2023-05-11T06:25:59.149Z,94
2023-05-11T06:29:24.412Z,94
2023-05-11T06:32:49.593Z,95
2023-05-11T06:36:14.743Z,94
2023-05-11T06:39:39.914Z,94
2023-05-11T06:43:05.134Z,93
2023-05-11T06:46:30.386Z,94
2023-05-11T06:49:55.494Z,93
2023-05-11T06:53:20.714Z,92
2023-05-11T06:56:45.872Z,92
2023-05-11T07:00:11.132Z,93
2023-05-11T07:03:36.315Z,93
2023-05-11T07:07:01.511Z,93
2023-05-11T07:10:26.732Z,92
2023-05-11T07:13:51.916Z,92
2023-05-11T07:17:17.183Z,92
2023-05-11T07:20:42.409Z,91
2023-05-11T07:24:08.929Z,92
2023-05-11T07:27:34.137Z,91
2023-05-11T07:30:59.300Z,91
2023-05-11T07:34:24.529Z,92
2023-05-11T07:37:49.698Z,92
2023-05-11T07:41:14.891Z,92
2023-05-11T07:44:40.122Z,92
2023-05-11T07:48:05.302Z,93
2023-05-11T07:51:30.467Z,92
2023-05-11T07:54:55.649Z,92
2023-05-11T07:58:20.864Z,92
2023-05-11T08:01:46.133Z,92
2023-05-11T08:05:11.277Z,92
2023-05-11T08:08:36.465Z,92
2023-05-11T08:12:01.697Z,92
2023-05-11T08:15:26.863Z,92
2023-05-11T08:18:52.183Z,92
2023-05-11T08:22:17.333Z,92
2023-05-11T08:25:42.557Z,93
2023-05-11T08:29:07.816Z,92
2023-05-11T08:32:38.278Z,93
2023-05-11T08:35:58.344Z,92
2023-05-11T08:39:38.801Z,91
2023-05-11T08:42:48.903Z,91
2023-05-11T08:46:14.132Z,92
2023-05-11T08:49:39.283Z,91
2023-05-11T08:53:04.500Z,90
2023-05-11T08:56:29.684Z,90
2023-05-11T08:59:55.049Z,90
2023-05-11T09:03:20.238Z,90
2023-05-11T09:06:45.442Z,91
2023-05-11T09:10:12.983Z,91
2023-05-11T09:13:35.852Z,92
2023-05-11T09:17:01.094Z,92
2023-05-11T09:20:26.237Z,92
2023-05-11T09:23:51.464Z,92
2023-05-11T09:27:21.088Z,93
2023-05-11T09:30:41.830Z,91
2023-05-11T09:34:07.059Z,90
2023-05-11T09:37:32.294Z,92
2023-05-11T09:40:57.512Z,91
2023-05-11T09:44:22.802Z,90
2023-05-11T09:47:49.159Z,90
2023-05-11T09:51:13.317Z,90
2023-05-11T09:54:38.554Z,90
2023-05-11T09:58:03.789Z,92
2023-05-11T10:01:29.063Z,91
2023-05-11T10:04:54.246Z,90
2023-05-11T10:08:19.457Z,90
2023-05-11T10:11:44.690Z,90
2023-05-11T10:15:10.025Z,89
2023-05-11T10:18:35.271Z,89
2023-05-11T10:22:00.457Z,88
2023-05-11T10:25:25.679Z,91
2023-05-11T10:28:50.944Z,92
2023-05-11T10:32:16.164Z,91
2023-05-11T10:35:41.513Z,90
2023-05-11T10:39:06.716Z,91
2023-05-11T10:42:31.929Z,91
2023-05-11T10:45:57.221Z,91
2023-05-11T10:49:22.421Z,89
2023-05-11T10:52:47.690Z,90
2023-05-11T10:56:12.949Z,86
2023-05-11T10:59:38.203Z,86
2023-05-11T11:03:03.529Z,88
2023-05-11T11:06:28.850Z,89
2023-05-11T11:09:54.128Z,90
2023-05-11T11:13:19.362Z,90
2023-05-11T11:16:44.611Z,90
2023-05-11T11:20:09.910Z,91
2023-05-11T11:23:35.209Z,88
2023-05-11T11:27:00.514Z,90
2023-05-11T11:30:25.781Z,90
2023-05-11T11:33:51.039Z,92
2023-05-11T11:37:16.284Z,94
2023-05-11T11:40:50.403Z,92
2023-05-11T11:44:06.918Z,93
2023-05-11T11:47:32.155Z,94
2023-05-11T11:50:57.436Z,94
2023-05-11T11:54:22.727Z,93
2023-05-11T11:57:47.997Z,93
2023-05-11T12:01:13.390Z,93
2023-05-11T12:04:38.666Z,93
2023-05-11T12:08:03.897Z,93
2023-05-11T12:11:29.199Z,92
2023-05-11T12:14:54.543Z,92
2023-05-11T12:18:20.637Z,93
2023-05-11T12:21:45.880Z,93
2023-05-11T12:25:11.178Z,93
2023-05-11T12:28:36.443Z,95
2023-05-11T12:32:01.939Z,95
2023-05-11T12:35:27.220Z,95
2023-05-11T12:38:52.507Z,95
2023-05-11T12:42:17.812Z,93
2023-05-11T12:45:43.170Z,86
2023-05-11T12:49:08.471Z,87
2023-05-11T12:52:33.765Z,85
2023-05-11T12:55:59.078Z,85
2023-05-11T12:59:24.517Z,86
2023-05-11T13:02:49.907Z,80
2023-05-11T13:06:14.943Z,81
2023-05-11T13:09:40.264Z,84
2023-05-11T13:13:05.526Z,84
2023-05-11T13:16:30.986Z,84
2023-05-11T13:19:56.197Z,86
2023-05-11T13:23:21.490Z,87
2023-05-11T13:26:46.856Z,87
2023-05-11T13:30:12.212Z,89
2023-05-11T13:33:37.475Z,89
2023-05-11T13:37:02.767Z,88
2023-05-11T13:40:28.118Z,88
2023-05-11T13:43:53.504Z,86
2023-05-11T13:47:18.846Z,85
2023-05-11T13:50:44.163Z,86
2023-05-11T13:54:09.422Z,85
2023-05-11T13:57:34.722Z,86
2023-05-11T14:01:07.561Z,86
2023-05-11T14:04:25.345Z,86
2023-05-11T14:07:50.679Z,86
2023-05-11T14:11:16.056Z,86
2023-05-11T14:14:41.386Z,86
2023-05-11T14:18:06.887Z,85
2023-05-11T14:21:32.002Z,85
2023-05-11T14:24:57.273Z,84
2023-05-11T14:28:22.559Z,85
2023-05-11T14:31:47.834Z,85
2023-05-11T14:35:13.128Z,86
2023-05-11T14:38:38.440Z,85
2023-05-11T14:42:03.803Z,84
2023-05-11T14:45:31.868Z,85
2023-05-11T14:48:57.178Z,85
2023-05-11T14:52:22.505Z,86
2023-05-11T14:55:47.978Z,85
2023-05-11T14:59:13.354Z,84
2023-05-11T15:02:39.094Z,85
2023-05-11T15:06:04.471Z,83
2023-05-11T15:09:29.880Z,83
2023-05-11T15:47:18.093Z,80
2023-05-11T15:50:43.345Z,80
2023-05-11T15:54:08.630Z,78
2023-05-11T15:57:33.902Z,79
2023-05-11T16:00:59.261Z,80
2023-05-11T16:04:24.610Z,79
2023-05-11T16:07:50.133Z,79
2023-05-11T16:11:22.010Z,79
2023-05-11T16:14:49.234Z,80
2023-05-11T16:18:14.914Z,78
2023-05-11T16:21:39.889Z,79
2023-05-11T16:25:05.099Z,80
2023-05-11T16:28:30.406Z,80
2023-05-11T16:31:55.719Z,79
2023-05-11T16:35:21.031Z,80
2023-05-11T16:38:46.371Z,80
2023-05-11T16:42:11.646Z,82
2023-05-11T16:45:36.939Z,81
2023-05-11T16:49:02.235Z,82
2023-05-11T16:52:27.513Z,82
2023-05-11T16:55:52.881Z,80
2023-05-11T16:59:18.194Z,82
2023-05-11T17:02:43.704Z,81
2023-05-11T17:06:08.925Z,81
2023-05-11T17:09:34.230Z,81
2023-05-11T17:12:59.514Z,81
2023-05-11T17:16:24.853Z,82
2023-05-11T17:19:50.140Z,82
2023-05-11T17:23:15.412Z,83
2023-05-11T17:26:47.630Z,84
2023-05-11T17:30:05.989Z,84
2023-05-11T17:33:31.240Z,84
2023-05-11T17:36:56.494Z,84
2023-05-11T17:40:21.780Z,84
2023-05-11T17:43:46.946Z,84
2023-05-11T17:47:12.200Z,85
2023-05-11T17:50:37.380Z,85
2023-05-11T17:54:02.659Z,85
2023-05-11T17:57:27.859Z,86
2023-05-11T18:00:53.156Z,86
2023-05-11T18:04:18.419Z,86
2023-05-11T18:07:43.616Z,86
2023-05-11T18:11:08.822Z,86
2023-05-11T18:14:34.048Z,87
2023-05-11T18:17:59.318Z,87
2023-05-11T18:21:24.535Z,87
2023-05-11T18:24:49.731Z,87
2023-05-11T18:28:14.973Z,87
2023-05-11T18:31:40.245Z,88
2023-05-11T18:35:05.563Z,88
2023-05-11T18:38:30.814Z,87
2023-05-11T18:41:56.002Z,87
2023-05-11T18:45:21.212Z,87
2023-05-11T18:48:46.468Z,87
2023-05-11T18:52:11.781Z,87
2023-05-11T18:55:45.405Z,88
2023-05-11T18:59:02.254Z,88
2023-05-11T19:02:27.513Z,88
2023-05-11T19:05:52.673Z,88
2023-05-11T19:09:17.916Z,88
2023-05-11T19:12:43.303Z,88
2023-05-11T19:16:08.428Z,88
2023-05-11T19:19:33.619Z,88
2023-05-11T19:22:58.842Z,88
2023-05-11T19:26:24.097Z,89
2023-05-11T19:29:49.370Z,88
2023-05-11T19:33:14.833Z,88
2023-05-11T19:36:39.803Z,88
2023-05-11T19:40:26.380Z,87
2023-05-11T19:43:30.220Z,87
2023-05-11T19:46:55.509Z,87
2023-05-11T19:50:23.657Z,87
2023-05-11T19:53:46.319Z,87
2023-05-11T19:57:11.527Z,87
2023-05-11T20:00:36.752Z,86
2023-05-11T20:04:02.165Z,87
2023-05-11T20:07:27.122Z,86
2023-05-11T20:10:52.304Z,86
2023-05-11T20:14:17.498Z,87
2023-05-11T20:17:42.738Z,87
2023-05-11T20:21:07.910Z,87
2023-05-11T20:24:33.061Z,88
2023-05-11T20:27:58.257Z,89
2023-05-11T20:31:23.450Z,89
2023-05-11T20:34:48.627Z,89
2023-05-11T20:38:13.826Z,89
2023-05-11T20:41:38.991Z,89
2023-05-11T20:45:04.181Z,89
2023-05-11T20:48:38.846Z,89
2023-05-11T20:51:54.534Z,89
2023-05-11T20:55:19.952Z,88
2023-05-11T20:58:44.903Z,89
2023-05-11T21:02:10.174Z,89
2023-05-11T21:05:35.297Z,89
2023-05-11T21:09:00.471Z,90
2023-05-11T21:12:25.652Z,90
2023-05-11T21:15:50.811Z,90
2023-05-11T21:19:16.013Z,91
2023-05-11T21:22:41.179Z,91
2023-05-11T21:26:06.375Z,91
2023-05-11T21:29:31.571Z,91
2023-05-11T21:32:56.772Z,91
2023-05-11T21:36:21.930Z,91
2023-05-11T21:39:47.117Z,91
2023-05-11T21:43:13.931Z,91
2023-05-11T21:46:37.522Z,91
2023-05-11T21:50:02.664Z,91
2023-05-11T21:53:27.857Z,91
2023-05-11T21:56:53.043Z,91
2023-05-11T22:00:18.831Z,91
2023-05-11T22:03:43.569Z,91
2023-05-11T22:07:08.581Z,90
2023-05-11T22:10:33.766Z,91
2023-05-11T22:13:58.913Z,91
2023-05-11T22:17:24.131Z,91
2023-05-11T22:20:49.299Z,91
2023-05-11T22:24:14.484Z,91
2023-05-11T22:27:39.633Z,91
2023-05-11T22:31:04.816Z,92
2023-05-11T22:34:30.005Z,92
2023-05-11T22:37:55.205Z,92
2023-05-11T22:41:20.356Z,91
2023-05-11T22:44:45.533Z,91
2023-05-11T22:48:11.344Z,91
2023-05-11T22:51:36.521Z,91
2023-05-11T22:55:01.731Z,91
2023-05-11T22:58:26.856Z,91
2023-05-11T23:01:52.025Z,91
2023-05-11T23:05:17.215Z,92
2023-05-11T23:08:42.381Z,92
2023-05-11T23:12:07.708Z,92
2023-05-11T23:15:32.722Z,92
2023-05-11T23:18:57.962Z,92
2023-05-11T23:22:23.079Z,92
2023-05-11T23:25:48.251Z,92
2023-05-11T23:29:13.449Z,92
2023-05-11T23:32:38.586Z,92
2023-05-11T23:36:03.779Z,91
2023-05-11T23:39:28.963Z,92
2023-05-11T23:42:54.129Z,92
2023-05-11T23:46:19.336Z,92
2023-05-11T23:49:44.484Z,92
2023-05-11T23:53:09.695Z,92
2023-05-11T23:56:34.851Z,92
